sensor_id;sensor_type;location;lat;lon;timestamp;P1;durP1;ratioP1;P2;durP2;ratioP2
2305;SDS011;1161;51.922;8.896;2024-02-15T00:00:15;24.97;;;10.87;;
2305;SDS011;1161;51.922;8.896;2024-02-15T00:02:42;20.10;;;12.00;;
2305;SDS011;1161;51.922;8.896;2024-02-15T00:05:11;22.17;;;11.77;;
2305;SDS011;1161;51.922;8.896;2024-02-15T00:07:40;20.50;;;11.17;;
2305;SDS011;1161;51.922;8.896;2024-02-15T00:10:07;16.70;;;9.90;;
2305;SDS011;1161;51.922;8.896;2024-02-15T00:12:35;20.13;;;10.87;;
2305;SDS011;1161;51.922;8.896;2024-02-15T00:15:02;18.30;;;10.07;;
2305;SDS011;1161;51.922;8.896;2024-02-15T00:17:29;15.87;;;8.90;;
2305;SDS011;1161;51.922;8.896;2024-02-15T00:19:56;17.53;;;9.47;;
2305;SDS011;1161;51.922;8.896;2024-02-15T00:22:24;15.67;;;10.13;;
2305;SDS011;1161;51.922;8.896;2024-02-15T00:24:51;24.90;;;9.10;;
2305;SDS011;1161;51.922;8.896;2024-02-15T00:27:18;22.90;;;10.60;;
2305;SDS011;1161;51.922;8.896;2024-02-15T00:29:46;14.73;;;9.63;;
2305;SDS011;1161;51.922;8.896;2024-02-15T00:32:13;15.97;;;9.40;;
2305;SDS011;1161;51.922;8.896;2024-02-15T00:34:40;16.10;;;9.20;;
2305;SDS011;1161;51.922;8.896;2024-02-15T00:37:07;18.97;;;10.10;;
2305;SDS011;1161;51.922;8.896;2024-02-15T00:39:35;16.33;;;9.23;;
2305;SDS011;1161;51.922;8.896;2024-02-15T00:42:01;14.73;;;8.90;;
2305;SDS011;1161;51.922;8.896;2024-02-15T00:44:29;15.97;;;9.10;;
2305;SDS011;1161;51.922;8.896;2024-02-15T00:46:56;15.30;;;8.27;;
2305;SDS011;1161;51.922;8.896;2024-02-15T00:49:23;16.30;;;10.00;;
2305;SDS011;1161;51.922;8.896;2024-02-15T00:51:53;12.30;;;8.13;;
2305;SDS011;1161;51.922;8.896;2024-02-15T00:54:20;17.47;;;8.90;;
2305;SDS011;1161;51.922;8.896;2024-02-15T00:56:49;16.27;;;9.80;;
2305;SDS011;1161;51.922;8.896;2024-02-15T00:59:18;16.00;;;9.23;;
2305;SDS011;1161;51.922;8.896;2024-02-15T01:01:44;14.80;;;8.70;;
2305;SDS011;1161;51.922;8.896;2024-02-15T01:04:13;15.50;;;9.10;;
2305;SDS011;1161;51.922;8.896;2024-02-15T01:06:40;15.13;;;8.60;;
2305;SDS011;1161;51.922;8.896;2024-02-15T01:09:07;9.50;;;6.97;;
2305;SDS011;1161;51.922;8.896;2024-02-15T01:11:36;7.10;;;5.50;;
2305;SDS011;1161;51.922;8.896;2024-02-15T01:14:05;9.23;;;6.43;;
2305;SDS011;1161;51.922;8.896;2024-02-15T01:16:32;8.30;;;5.57;;
2305;SDS011;1161;51.922;8.896;2024-02-15T01:19:01;7.20;;;5.53;;
2305;SDS011;1161;51.922;8.896;2024-02-15T01:21:28;12.57;;;8.00;;
2305;SDS011;1161;51.922;8.896;2024-02-15T01:23:54;9.77;;;6.03;;
2305;SDS011;1161;51.922;8.896;2024-02-15T01:26:21;9.63;;;6.70;;
2305;SDS011;1161;51.922;8.896;2024-02-15T01:28:49;7.97;;;5.77;;
2305;SDS011;1161;51.922;8.896;2024-02-15T01:31:17;12.60;;;7.67;;
2305;SDS011;1161;51.922;8.896;2024-02-15T01:33:46;9.97;;;7.13;;
2305;SDS011;1161;51.922;8.896;2024-02-15T01:36:13;9.40;;;6.93;;
2305;SDS011;1161;51.922;8.896;2024-02-15T01:38:41;7.20;;;6.07;;
2305;SDS011;1161;51.922;8.896;2024-02-15T01:41:08;5.80;;;4.50;;
2305;SDS011;1161;51.922;8.896;2024-02-15T01:43:35;6.27;;;4.07;;
2305;SDS011;1161;51.922;8.896;2024-02-15T01:46:02;4.10;;;3.80;;
2305;SDS011;1161;51.922;8.896;2024-02-15T01:48:35;3.33;;;3.03;;
2305;SDS011;1161;51.922;8.896;2024-02-15T01:51:03;3.77;;;3.50;;
2305;SDS011;1161;51.922;8.896;2024-02-15T01:53:31;4.43;;;3.70;;
2305;SDS011;1161;51.922;8.896;2024-02-15T01:55:58;9.13;;;5.27;;
2305;SDS011;1161;51.922;8.896;2024-02-15T01:58:25;9.80;;;5.20;;
2305;SDS011;1161;51.922;8.896;2024-02-15T02:00:52;6.80;;;4.20;;
2305;SDS011;1161;51.922;8.896;2024-02-15T02:03:20;5.80;;;5.00;;
2305;SDS011;1161;51.922;8.896;2024-02-15T02:05:48;6.17;;;4.93;;
2305;SDS011;1161;51.922;8.896;2024-02-15T02:08:16;7.97;;;5.27;;
2305;SDS011;1161;51.922;8.896;2024-02-15T02:10:42;6.20;;;4.83;;
2305;SDS011;1161;51.922;8.896;2024-02-15T02:13:11;4.63;;;4.00;;
2305;SDS011;1161;51.922;8.896;2024-02-15T02:15:37;3.90;;;3.33;;
2305;SDS011;1161;51.922;8.896;2024-02-15T02:18:05;3.97;;;3.57;;
2305;SDS011;1161;51.922;8.896;2024-02-15T02:20:34;2.80;;;2.60;;
2305;SDS011;1161;51.922;8.896;2024-02-15T02:23:03;4.30;;;3.93;;
2305;SDS011;1161;51.922;8.896;2024-02-15T02:25:35;4.30;;;3.80;;
2305;SDS011;1161;51.922;8.896;2024-02-15T02:28:02;4.70;;;3.20;;
2305;SDS011;1161;51.922;8.896;2024-02-15T02:30:28;4.37;;;3.57;;
2305;SDS011;1161;51.922;8.896;2024-02-15T02:32:56;7.13;;;5.00;;
2305;SDS011;1161;51.922;8.896;2024-02-15T02:35:24;9.23;;;4.77;;
2305;SDS011;1161;51.922;8.896;2024-02-15T02:37:51;10.13;;;5.80;;
2305;SDS011;1161;51.922;8.896;2024-02-15T02:40:19;7.93;;;5.90;;
2305;SDS011;1161;51.922;8.896;2024-02-15T02:42:49;6.70;;;5.10;;
2305;SDS011;1161;51.922;8.896;2024-02-15T02:45:16;11.30;;;6.37;;
2305;SDS011;1161;51.922;8.896;2024-02-15T02:47:45;15.53;;;7.90;;
2305;SDS011;1161;51.922;8.896;2024-02-15T02:50:12;17.70;;;7.60;;
2305;SDS011;1161;51.922;8.896;2024-02-15T02:52:39;15.90;;;8.40;;
2305;SDS011;1161;51.922;8.896;2024-02-15T02:55:07;13.47;;;8.10;;
2305;SDS011;1161;51.922;8.896;2024-02-15T02:57:34;16.50;;;9.13;;
2305;SDS011;1161;51.922;8.896;2024-02-15T03:00:04;14.03;;;9.30;;
2305;SDS011;1161;51.922;8.896;2024-02-15T03:02:33;22.33;;;10.60;;
2305;SDS011;1161;51.922;8.896;2024-02-15T03:05:01;18.27;;;10.13;;
2305;SDS011;1161;51.922;8.896;2024-02-15T03:07:31;13.93;;;8.13;;
2305;SDS011;1161;51.922;8.896;2024-02-15T03:09:59;19.50;;;9.07;;
2305;SDS011;1161;51.922;8.896;2024-02-15T03:12:27;12.33;;;7.90;;
2305;SDS011;1161;51.922;8.896;2024-02-15T03:14:54;12.63;;;7.27;;
2305;SDS011;1161;51.922;8.896;2024-02-15T03:17:23;17.43;;;7.70;;
2305;SDS011;1161;51.922;8.896;2024-02-15T03:19:50;14.80;;;7.73;;
2305;SDS011;1161;51.922;8.896;2024-02-15T03:22:17;10.30;;;6.90;;
2305;SDS011;1161;51.922;8.896;2024-02-15T03:24:44;9.27;;;7.03;;
2305;SDS011;1161;51.922;8.896;2024-02-15T03:27:10;9.90;;;6.43;;
2305;SDS011;1161;51.922;8.896;2024-02-15T03:29:37;9.90;;;5.87;;
2305;SDS011;1161;51.922;8.896;2024-02-15T03:32:05;10.03;;;5.73;;
2305;SDS011;1161;51.922;8.896;2024-02-15T03:34:33;8.63;;;6.10;;
2305;SDS011;1161;51.922;8.896;2024-02-15T03:37:00;9.80;;;6.60;;
2305;SDS011;1161;51.922;8.896;2024-02-15T03:39:29;16.80;;;8.80;;
2305;SDS011;1161;51.922;8.896;2024-02-15T03:41:58;14.97;;;9.00;;
2305;SDS011;1161;51.922;8.896;2024-02-15T03:44:25;21.40;;;9.67;;
2305;SDS011;1161;51.922;8.896;2024-02-15T03:46:52;27.70;;;12.23;;
2305;SDS011;1161;51.922;8.896;2024-02-15T03:49:20;20.33;;;11.50;;
2305;SDS011;1161;51.922;8.896;2024-02-15T03:51:49;30.50;;;11.57;;
2305;SDS011;1161;51.922;8.896;2024-02-15T03:54:16;32.43;;;12.30;;
2305;SDS011;1161;51.922;8.896;2024-02-15T03:56:46;24.33;;;14.23;;
2305;SDS011;1161;51.922;8.896;2024-02-15T03:59:18;28.07;;;14.20;;
2305;SDS011;1161;51.922;8.896;2024-02-15T04:01:52;32.13;;;14.57;;
2305;SDS011;1161;51.922;8.896;2024-02-15T04:04:19;28.27;;;12.50;;
2305;SDS011;1161;51.922;8.896;2024-02-15T04:06:47;33.23;;;15.37;;
2305;SDS011;1161;51.922;8.896;2024-02-15T04:09:15;33.40;;;14.80;;
2305;SDS011;1161;51.922;8.896;2024-02-15T04:11:44;29.47;;;14.50;;
2305;SDS011;1161;51.922;8.896;2024-02-15T04:14:12;39.03;;;18.03;;
2305;SDS011;1161;51.922;8.896;2024-02-15T04:16:39;38.90;;;16.27;;
2305;SDS011;1161;51.922;8.896;2024-02-15T04:19:06;34.90;;;15.57;;
2305;SDS011;1161;51.922;8.896;2024-02-15T04:21:32;33.47;;;15.20;;
2305;SDS011;1161;51.922;8.896;2024-02-15T04:23:59;30.80;;;15.57;;
2305;SDS011;1161;51.922;8.896;2024-02-15T04:26:28;33.83;;;16.33;;
2305;SDS011;1161;51.922;8.896;2024-02-15T04:28:57;32.77;;;13.60;;
2305;SDS011;1161;51.922;8.896;2024-02-15T04:31:24;31.17;;;15.07;;
2305;SDS011;1161;51.922;8.896;2024-02-15T04:33:53;29.40;;;14.70;;
2305;SDS011;1161;51.922;8.896;2024-02-15T04:36:19;27.83;;;13.30;;
2305;SDS011;1161;51.922;8.896;2024-02-15T04:38:50;35.37;;;11.80;;
2305;SDS011;1161;51.922;8.896;2024-02-15T04:41:17;25.23;;;13.30;;
2305;SDS011;1161;51.922;8.896;2024-02-15T04:43:50;17.67;;;9.60;;
2305;SDS011;1161;51.922;8.896;2024-02-15T04:46:18;20.63;;;11.43;;
2305;SDS011;1161;51.922;8.896;2024-02-15T04:48:47;17.60;;;9.20;;
2305;SDS011;1161;51.922;8.896;2024-02-15T04:51:17;18.80;;;9.60;;
2305;SDS011;1161;51.922;8.896;2024-02-15T04:53:46;17.97;;;10.20;;
2305;SDS011;1161;51.922;8.896;2024-02-15T04:56:18;17.10;;;9.73;;
2305;SDS011;1161;51.922;8.896;2024-02-15T04:58:47;25.43;;;9.20;;
2305;SDS011;1161;51.922;8.896;2024-02-15T05:01:18;18.80;;;9.57;;
2305;SDS011;1161;51.922;8.896;2024-02-15T05:03:48;16.87;;;8.43;;
2305;SDS011;1161;51.922;8.896;2024-02-15T05:06:15;18.00;;;8.10;;
2305;SDS011;1161;51.922;8.896;2024-02-15T05:08:42;13.43;;;8.47;;
2305;SDS011;1161;51.922;8.896;2024-02-15T05:11:08;11.30;;;6.80;;
2305;SDS011;1161;51.922;8.896;2024-02-15T05:13:40;20.80;;;7.13;;
2305;SDS011;1161;51.922;8.896;2024-02-15T05:16:08;13.67;;;8.40;;
2305;SDS011;1161;51.922;8.896;2024-02-15T05:18:36;10.43;;;6.53;;
2305;SDS011;1161;51.922;8.896;2024-02-15T05:21:05;13.00;;;7.27;;
2305;SDS011;1161;51.922;8.896;2024-02-15T05:23:34;16.50;;;8.20;;
2305;SDS011;1161;51.922;8.896;2024-02-15T05:26:01;16.33;;;8.00;;
2305;SDS011;1161;51.922;8.896;2024-02-15T05:28:30;13.67;;;7.07;;
2305;SDS011;1161;51.922;8.896;2024-02-15T05:31:10;12.57;;;7.10;;
2305;SDS011;1161;51.922;8.896;2024-02-15T05:33:39;7.33;;;5.67;;
2305;SDS011;1161;51.922;8.896;2024-02-15T05:36:09;18.13;;;7.80;;
2305;SDS011;1161;51.922;8.896;2024-02-15T05:38:37;22.43;;;7.63;;
2305;SDS011;1161;51.922;8.896;2024-02-15T05:41:04;13.03;;;7.30;;
2305;SDS011;1161;51.922;8.896;2024-02-15T05:43:32;14.33;;;6.70;;
2305;SDS011;1161;51.922;8.896;2024-02-15T05:46:02;12.20;;;6.37;;
2305;SDS011;1161;51.922;8.896;2024-02-15T05:48:29;13.63;;;7.90;;
2305;SDS011;1161;51.922;8.896;2024-02-15T05:50:57;13.50;;;6.60;;
2305;SDS011;1161;51.922;8.896;2024-02-15T05:53:25;13.60;;;6.20;;
2305;SDS011;1161;51.922;8.896;2024-02-15T05:55:52;11.97;;;5.57;;
2305;SDS011;1161;51.922;8.896;2024-02-15T05:58:19;9.33;;;6.30;;
2305;SDS011;1161;51.922;8.896;2024-02-15T06:00:46;20.43;;;6.57;;
2305;SDS011;1161;51.922;8.896;2024-02-15T06:03:15;10.23;;;5.40;;
2305;SDS011;1161;51.922;8.896;2024-02-15T06:05:42;9.90;;;5.77;;
2305;SDS011;1161;51.922;8.896;2024-02-15T06:08:10;9.10;;;4.90;;
2305;SDS011;1161;51.922;8.896;2024-02-15T06:10:38;20.17;;;5.83;;
2305;SDS011;1161;51.922;8.896;2024-02-15T06:13:05;6.57;;;5.47;;
2305;SDS011;1161;51.922;8.896;2024-02-15T06:15:34;8.50;;;5.80;;
2305;SDS011;1161;51.922;8.896;2024-02-15T06:18:01;9.30;;;5.30;;
2305;SDS011;1161;51.922;8.896;2024-02-15T06:20:34;10.37;;;7.10;;
2305;SDS011;1161;51.922;8.896;2024-02-15T06:23:01;11.30;;;5.80;;
2305;SDS011;1161;51.922;8.896;2024-02-15T06:25:32;7.10;;;5.77;;
2305;SDS011;1161;51.922;8.896;2024-02-15T06:27:59;9.23;;;5.90;;
2305;SDS011;1161;51.922;8.896;2024-02-15T06:30:27;12.73;;;5.33;;
2305;SDS011;1161;51.922;8.896;2024-02-15T06:33:11;5.83;;;4.77;;
2305;SDS011;1161;51.922;8.896;2024-02-15T06:35:56;9.50;;;4.77;;
2305;SDS011;1161;51.922;8.896;2024-02-15T06:38:40;7.27;;;4.40;;
2305;SDS011;1161;51.922;8.896;2024-02-15T06:41:27;4.97;;;4.40;;
2305;SDS011;1161;51.922;8.896;2024-02-15T06:43:54;6.40;;;4.00;;
2305;SDS011;1161;51.922;8.896;2024-02-15T06:46:21;11.97;;;4.20;;
2305;SDS011;1161;51.922;8.896;2024-02-15T06:48:48;7.70;;;4.93;;
2305;SDS011;1161;51.922;8.896;2024-02-15T06:51:15;7.10;;;4.10;;
2305;SDS011;1161;51.922;8.896;2024-02-15T06:53:42;5.00;;;3.43;;
2305;SDS011;1161;51.922;8.896;2024-02-15T06:56:09;5.50;;;3.40;;
2305;SDS011;1161;51.922;8.896;2024-02-15T06:58:37;7.30;;;5.17;;
2305;SDS011;1161;51.922;8.896;2024-02-15T07:01:05;7.50;;;4.67;;
2305;SDS011;1161;51.922;8.896;2024-02-15T07:03:33;10.90;;;4.70;;
2305;SDS011;1161;51.922;8.896;2024-02-15T07:06:01;9.03;;;3.77;;
2305;SDS011;1161;51.922;8.896;2024-02-15T07:08:28;7.07;;;4.20;;
2305;SDS011;1161;51.922;8.896;2024-02-15T07:10:55;5.50;;;4.80;;
2305;SDS011;1161;51.922;8.896;2024-02-15T07:13:22;8.10;;;3.03;;
2305;SDS011;1161;51.922;8.896;2024-02-15T07:15:50;5.23;;;3.93;;
2305;SDS011;1161;51.922;8.896;2024-02-15T07:18:17;13.93;;;4.77;;
2305;SDS011;1161;51.922;8.896;2024-02-15T07:20:45;5.50;;;4.17;;
2305;SDS011;1161;51.922;8.896;2024-02-15T07:23:12;5.60;;;3.40;;
2305;SDS011;1161;51.922;8.896;2024-02-15T07:25:39;9.13;;;5.20;;
2305;SDS011;1161;51.922;8.896;2024-02-15T07:28:06;6.93;;;3.60;;
2305;SDS011;1161;51.922;8.896;2024-02-15T07:30:35;10.13;;;3.80;;
2305;SDS011;1161;51.922;8.896;2024-02-15T07:33:03;8.30;;;4.33;;
2305;SDS011;1161;51.922;8.896;2024-02-15T07:35:32;6.37;;;4.93;;
2305;SDS011;1161;51.922;8.896;2024-02-15T07:38:00;7.50;;;3.77;;
2305;SDS011;1161;51.922;8.896;2024-02-15T07:40:28;5.13;;;4.60;;
2305;SDS011;1161;51.922;8.896;2024-02-15T07:42:56;6.83;;;5.03;;
2305;SDS011;1161;51.922;8.896;2024-02-15T07:45:24;6.00;;;4.87;;
2305;SDS011;1161;51.922;8.896;2024-02-15T07:47:50;8.73;;;6.13;;
2305;SDS011;1161;51.922;8.896;2024-02-15T07:50:19;15.27;;;6.30;;
2305;SDS011;1161;51.922;8.896;2024-02-15T07:52:48;15.00;;;7.33;;
2305;SDS011;1161;51.922;8.896;2024-02-15T07:55:16;15.30;;;9.10;;
2305;SDS011;1161;51.922;8.896;2024-02-15T07:57:43;16.03;;;9.27;;
2305;SDS011;1161;51.922;8.896;2024-02-15T08:00:12;17.70;;;10.03;;
2305;SDS011;1161;51.922;8.896;2024-02-15T08:02:41;12.73;;;8.10;;
2305;SDS011;1161;51.922;8.896;2024-02-15T08:07:40;10.20;;;6.90;;
2305;SDS011;1161;51.922;8.896;2024-02-15T08:10:07;15.63;;;7.80;;
2305;SDS011;1161;51.922;8.896;2024-02-15T08:12:38;16.03;;;8.47;;
2305;SDS011;1161;51.922;8.896;2024-02-15T08:15:06;16.10;;;7.57;;
2305;SDS011;1161;51.922;8.896;2024-02-15T08:17:37;12.37;;;8.70;;
2305;SDS011;1161;51.922;8.896;2024-02-15T08:20:06;13.40;;;8.07;;
2305;SDS011;1161;51.922;8.896;2024-02-15T08:22:35;11.20;;;7.63;;
2305;SDS011;1161;51.922;8.896;2024-02-15T08:25:07;10.50;;;7.30;;
2305;SDS011;1161;51.922;8.896;2024-02-15T08:27:36;22.93;;;6.07;;
2305;SDS011;1161;51.922;8.896;2024-02-15T08:30:07;10.73;;;5.13;;
2305;SDS011;1161;51.922;8.896;2024-02-15T08:32:34;11.47;;;6.47;;
2305;SDS011;1161;51.922;8.896;2024-02-15T08:35:01;8.57;;;4.67;;
2305;SDS011;1161;51.922;8.896;2024-02-15T08:37:30;5.40;;;4.83;;
2305;SDS011;1161;51.922;8.896;2024-02-15T08:39:57;6.93;;;5.00;;
2305;SDS011;1161;51.922;8.896;2024-02-15T08:42:26;13.60;;;5.40;;
2305;SDS011;1161;51.922;8.896;2024-02-15T08:44:53;11.37;;;5.40;;
2305;SDS011;1161;51.922;8.896;2024-02-15T08:47:20;5.20;;;4.20;;
2305;SDS011;1161;51.922;8.896;2024-02-15T08:49:47;6.33;;;3.93;;
2305;SDS011;1161;51.922;8.896;2024-02-15T08:52:14;5.23;;;2.90;;
2305;SDS011;1161;51.922;8.896;2024-02-15T08:54:43;5.27;;;3.43;;
2305;SDS011;1161;51.922;8.896;2024-02-15T08:57:10;8.97;;;3.13;;
2305;SDS011;1161;51.922;8.896;2024-02-15T08:59:40;5.40;;;3.20;;
2305;SDS011;1161;51.922;8.896;2024-02-15T09:02:08;5.60;;;3.27;;
2305;SDS011;1161;51.922;8.896;2024-02-15T09:04:34;4.67;;;3.33;;
2305;SDS011;1161;51.922;8.896;2024-02-15T09:07:01;4.27;;;3.23;;
2305;SDS011;1161;51.922;8.896;2024-02-15T09:09:29;8.23;;;4.37;;
2305;SDS011;1161;51.922;8.896;2024-02-15T09:11:57;9.13;;;3.93;;
2305;SDS011;1161;51.922;8.896;2024-02-15T09:14:24;10.63;;;4.00;;
2305;SDS011;1161;51.922;8.896;2024-02-15T09:16:52;4.57;;;4.10;;
2305;SDS011;1161;51.922;8.896;2024-02-15T09:19:19;8.20;;;4.33;;
2305;SDS011;1161;51.922;8.896;2024-02-15T09:21:46;3.87;;;3.50;;
2305;SDS011;1161;51.922;8.896;2024-02-15T09:24:12;5.97;;;3.10;;
2305;SDS011;1161;51.922;8.896;2024-02-15T09:26:41;8.53;;;4.67;;
2305;SDS011;1161;51.922;8.896;2024-02-15T09:29:08;8.17;;;3.40;;
2305;SDS011;1161;51.922;8.896;2024-02-15T09:31:35;5.57;;;4.03;;
2305;SDS011;1161;51.922;8.896;2024-02-15T09:34:03;9.63;;;3.97;;
2305;SDS011;1161;51.922;8.896;2024-02-15T09:36:33;8.53;;;3.97;;
2305;SDS011;1161;51.922;8.896;2024-02-15T09:39:00;7.00;;;3.10;;
2305;SDS011;1161;51.922;8.896;2024-02-15T09:41:27;3.97;;;3.40;;
2305;SDS011;1161;51.922;8.896;2024-02-15T09:43:54;6.17;;;3.10;;
2305;SDS011;1161;51.922;8.896;2024-02-15T09:46:21;2.57;;;2.40;;
2305;SDS011;1161;51.922;8.896;2024-02-15T09:48:49;10.33;;;3.00;;
2305;SDS011;1161;51.922;8.896;2024-02-15T09:51:18;9.73;;;3.27;;
2305;SDS011;1161;51.922;8.896;2024-02-15T09:53:47;3.23;;;2.97;;
2305;SDS011;1161;51.922;8.896;2024-02-15T09:56:14;13.70;;;3.97;;
2305;SDS011;1161;51.922;8.896;2024-02-15T09:58:41;4.73;;;3.80;;
2305;SDS011;1161;51.922;8.896;2024-02-15T10:01:09;6.73;;;3.77;;
2305;SDS011;1161;51.922;8.896;2024-02-15T10:03:37;5.77;;;3.60;;
2305;SDS011;1161;51.922;8.896;2024-02-15T10:06:05;3.73;;;2.50;;
2305;SDS011;1161;51.922;8.896;2024-02-15T10:08:34;4.67;;;2.93;;
2305;SDS011;1161;51.922;8.896;2024-02-15T10:11:05;4.63;;;3.13;;
2305;SDS011;1161;51.922;8.896;2024-02-15T10:13:33;9.50;;;3.43;;
2305;SDS011;1161;51.922;8.896;2024-02-15T10:16:04;4.67;;;2.73;;
2305;SDS011;1161;51.922;8.896;2024-02-15T10:18:40;4.40;;;3.00;;
2305;SDS011;1161;51.922;8.896;2024-02-15T10:21:07;8.77;;;2.97;;
2305;SDS011;1161;51.922;8.896;2024-02-15T10:23:35;11.03;;;3.50;;
2305;SDS011;1161;51.922;8.896;2024-02-15T10:26:07;7.03;;;3.20;;
2305;SDS011;1161;51.922;8.896;2024-02-15T10:28:45;6.73;;;3.30;;
2305;SDS011;1161;51.922;8.896;2024-02-15T10:31:12;4.23;;;3.60;;
2305;SDS011;1161;51.922;8.896;2024-02-15T10:33:39;4.67;;;3.07;;
2305;SDS011;1161;51.922;8.896;2024-02-15T10:36:06;5.83;;;3.30;;
2305;SDS011;1161;51.922;8.896;2024-02-15T10:38:33;5.87;;;4.73;;
2305;SDS011;1161;51.922;8.896;2024-02-15T10:41:04;9.63;;;3.97;;
2305;SDS011;1161;51.922;8.896;2024-02-15T10:43:31;4.23;;;3.27;;
2305;SDS011;1161;51.922;8.896;2024-02-15T10:45:59;18.47;;;3.43;;
2305;SDS011;1161;51.922;8.896;2024-02-15T10:48:28;3.17;;;2.30;;
2305;SDS011;1161;51.922;8.896;2024-02-15T10:50:55;4.87;;;3.27;;
2305;SDS011;1161;51.922;8.896;2024-02-15T10:53:23;4.73;;;2.60;;
2305;SDS011;1161;51.922;8.896;2024-02-15T10:55:57;3.67;;;2.50;;
2305;SDS011;1161;51.922;8.896;2024-02-15T10:58:31;7.43;;;2.63;;
2305;SDS011;1161;51.922;8.896;2024-02-15T11:01:02;4.40;;;3.40;;
2305;SDS011;1161;51.922;8.896;2024-02-15T11:03:34;5.60;;;3.10;;
2305;SDS011;1161;51.922;8.896;2024-02-15T11:06:02;3.10;;;2.70;;
2305;SDS011;1161;51.922;8.896;2024-02-15T11:08:32;5.00;;;3.10;;
2305;SDS011;1161;51.922;8.896;2024-02-15T11:10:59;7.90;;;2.60;;
2305;SDS011;1161;51.922;8.896;2024-02-15T11:13:31;8.60;;;3.70;;
2305;SDS011;1161;51.922;8.896;2024-02-15T11:15:58;4.00;;;3.70;;
2305;SDS011;1161;51.922;8.896;2024-02-15T11:18:42;5.97;;;3.87;;
2305;SDS011;1161;51.922;8.896;2024-02-15T11:21:11;10.27;;;4.13;;
2305;SDS011;1161;51.922;8.896;2024-02-15T11:23:37;5.30;;;3.07;;
2305;SDS011;1161;51.922;8.896;2024-02-15T11:26:08;13.37;;;3.40;;
2305;SDS011;1161;51.922;8.896;2024-02-15T11:28:44;4.33;;;2.50;;
2305;SDS011;1161;51.922;8.896;2024-02-15T11:37:09;5.47;;;3.30;;
2305;SDS011;1161;51.922;8.896;2024-02-15T11:39:39;2.90;;;2.70;;
2305;SDS011;1161;51.922;8.896;2024-02-15T11:42:25;7.90;;;2.23;;
2305;SDS011;1161;51.922;8.896;2024-02-15T11:45:03;9.83;;;2.80;;
2305;SDS011;1161;51.922;8.896;2024-02-15T11:47:31;3.60;;;3.30;;
2305;SDS011;1161;51.922;8.896;2024-02-15T11:49:59;2.90;;;2.53;;
2305;SDS011;1161;51.922;8.896;2024-02-15T11:52:26;2.73;;;2.53;;
2305;SDS011;1161;51.922;8.896;2024-02-15T11:54:53;4.37;;;2.93;;
2305;SDS011;1161;51.922;8.896;2024-02-15T11:57:19;4.00;;;3.60;;
2305;SDS011;1161;51.922;8.896;2024-02-15T12:00:04;2.30;;;2.20;;
2305;SDS011;1161;51.922;8.896;2024-02-15T12:02:54;4.43;;;3.10;;
2305;SDS011;1161;51.922;8.896;2024-02-15T12:05:43;5.30;;;2.60;;
2305;SDS011;1161;51.922;8.896;2024-02-15T12:08:28;4.13;;;2.40;;
2305;SDS011;1161;51.922;8.896;2024-02-15T12:11:13;3.80;;;3.00;;
2305;SDS011;1161;51.922;8.896;2024-02-15T12:13:58;5.23;;;3.20;;
2305;SDS011;1161;51.922;8.896;2024-02-15T12:16:44;6.67;;;3.57;;
2305;SDS011;1161;51.922;8.896;2024-02-15T12:19:28;2.57;;;2.40;;
2305;SDS011;1161;51.922;8.896;2024-02-15T12:21:55;5.07;;;3.50;;
2305;SDS011;1161;51.922;8.896;2024-02-15T12:24:24;6.73;;;3.70;;
2305;SDS011;1161;51.922;8.896;2024-02-15T12:26:59;6.47;;;2.73;;
2305;SDS011;1161;51.922;8.896;2024-02-15T12:29:26;10.07;;;3.00;;
2305;SDS011;1161;51.922;8.896;2024-02-15T12:31:55;2.93;;;2.73;;
2305;SDS011;1161;51.922;8.896;2024-02-15T12:34:22;8.17;;;2.70;;
2305;SDS011;1161;51.922;8.896;2024-02-15T12:36:49;2.50;;;2.37;;
2305;SDS011;1161;51.922;8.896;2024-02-15T12:39:23;4.00;;;2.00;;
2305;SDS011;1161;51.922;8.896;2024-02-15T12:41:51;3.33;;;2.57;;
2305;SDS011;1161;51.922;8.896;2024-02-15T12:44:17;3.57;;;3.37;;
2305;SDS011;1161;51.922;8.896;2024-02-15T12:46:45;29.07;;;5.13;;
2305;SDS011;1161;51.922;8.896;2024-02-15T12:49:28;4.10;;;3.80;;
2305;SDS011;1161;51.922;8.896;2024-02-15T12:55:06;5.83;;;3.07;;
2305;SDS011;1161;51.922;8.896;2024-02-15T12:57:34;2.87;;;1.90;;
2305;SDS011;1161;51.922;8.896;2024-02-15T13:00:01;3.70;;;2.03;;
2305;SDS011;1161;51.922;8.896;2024-02-15T13:02:36;1.80;;;1.50;;
2305;SDS011;1161;51.922;8.896;2024-02-15T13:05:04;3.67;;;2.10;;
2305;SDS011;1161;51.922;8.896;2024-02-15T13:07:33;2.47;;;2.27;;
2305;SDS011;1161;51.922;8.896;2024-02-15T13:10:00;3.10;;;2.87;;
2305;SDS011;1161;51.922;8.896;2024-02-15T13:12:27;8.47;;;2.00;;
2305;SDS011;1161;51.922;8.896;2024-02-15T13:14:54;6.77;;;1.80;;
2305;SDS011;1161;51.922;8.896;2024-02-15T13:17:21;6.23;;;2.27;;
2305;SDS011;1161;51.922;8.896;2024-02-15T13:19:48;4.80;;;2.00;;
2305;SDS011;1161;51.922;8.896;2024-02-15T13:22:16;3.33;;;1.70;;
2305;SDS011;1161;51.922;8.896;2024-02-15T13:24:43;10.30;;;2.40;;
2305;SDS011;1161;51.922;8.896;2024-02-15T13:27:10;2.80;;;2.70;;
2305;SDS011;1161;51.922;8.896;2024-02-15T13:29:37;4.63;;;2.67;;
2305;SDS011;1161;51.922;8.896;2024-02-15T13:32:05;2.70;;;2.50;;
2305;SDS011;1161;51.922;8.896;2024-02-15T13:34:32;2.37;;;1.93;;
2305;SDS011;1161;51.922;8.896;2024-02-15T13:36:59;4.53;;;3.70;;
2305;SDS011;1161;51.922;8.896;2024-02-15T13:39:28;7.80;;;2.73;;
2305;SDS011;1161;51.922;8.896;2024-02-15T13:41:58;2.90;;;2.70;;
2305;SDS011;1161;51.922;8.896;2024-02-15T13:44:25;5.43;;;2.00;;
2305;SDS011;1161;51.922;8.896;2024-02-15T13:46:52;6.57;;;2.57;;
2305;SDS011;1161;51.922;8.896;2024-02-15T13:49:20;4.63;;;1.50;;
2305;SDS011;1161;51.922;8.896;2024-02-15T13:51:47;3.67;;;1.73;;
2305;SDS011;1161;51.922;8.896;2024-02-15T13:54:17;3.80;;;1.70;;
2305;SDS011;1161;51.922;8.896;2024-02-15T13:56:45;7.07;;;1.80;;
2305;SDS011;1161;51.922;8.896;2024-02-15T13:59:12;1.40;;;1.30;;
2305;SDS011;1161;51.922;8.896;2024-02-15T14:01:39;6.43;;;1.77;;
2305;SDS011;1161;51.922;8.896;2024-02-15T14:04:12;3.33;;;2.07;;
2305;SDS011;1161;51.922;8.896;2024-02-15T14:06:38;3.10;;;2.50;;
2305;SDS011;1161;51.922;8.896;2024-02-15T14:09:06;4.63;;;2.53;;
2305;SDS011;1161;51.922;8.896;2024-02-15T14:11:33;3.40;;;1.90;;
2305;SDS011;1161;51.922;8.896;2024-02-15T14:14:01;4.20;;;2.30;;
2305;SDS011;1161;51.922;8.896;2024-02-15T14:16:28;3.00;;;2.23;;
2305;SDS011;1161;51.922;8.896;2024-02-15T14:18:55;6.43;;;2.50;;
2305;SDS011;1161;51.922;8.896;2024-02-15T14:21:21;9.73;;;5.00;;
2305;SDS011;1161;51.922;8.896;2024-02-15T14:23:48;10.87;;;8.37;;
2305;SDS011;1161;51.922;8.896;2024-02-15T14:26:15;12.83;;;6.23;;
2305;SDS011;1161;51.922;8.896;2024-02-15T14:28:42;8.53;;;3.00;;
2305;SDS011;1161;51.922;8.896;2024-02-15T14:31:11;6.00;;;3.03;;
2305;SDS011;1161;51.922;8.896;2024-02-15T14:33:55;5.80;;;4.17;;
2305;SDS011;1161;51.922;8.896;2024-02-15T14:36:22;19.07;;;6.47;;
2305;SDS011;1161;51.922;8.896;2024-02-15T14:38:49;9.70;;;4.63;;
2305;SDS011;1161;51.922;8.896;2024-02-15T14:41:18;4.77;;;3.30;;
2305;SDS011;1161;51.922;8.896;2024-02-15T14:43:46;3.97;;;3.57;;
2305;SDS011;1161;51.922;8.896;2024-02-15T14:46:14;8.63;;;4.30;;
2305;SDS011;1161;51.922;8.896;2024-02-15T14:48:41;25.63;;;9.30;;
2305;SDS011;1161;51.922;8.896;2024-02-15T14:51:09;9.53;;;5.93;;
2305;SDS011;1161;51.922;8.896;2024-02-15T14:53:41;9.73;;;4.83;;
2305;SDS011;1161;51.922;8.896;2024-02-15T14:56:09;3.90;;;3.37;;
2305;SDS011;1161;51.922;8.896;2024-02-15T14:58:36;3.30;;;3.10;;
2305;SDS011;1161;51.922;8.896;2024-02-15T15:01:03;3.63;;;3.33;;
2305;SDS011;1161;51.922;8.896;2024-02-15T15:03:32;4.57;;;4.10;;
2305;SDS011;1161;51.922;8.896;2024-02-15T15:05:59;7.57;;;4.23;;
2305;SDS011;1161;51.922;8.896;2024-02-15T15:08:44;6.33;;;3.93;;
2305;SDS011;1161;51.922;8.896;2024-02-15T15:11:28;5.77;;;4.47;;
2305;SDS011;1161;51.922;8.896;2024-02-15T15:14:12;15.63;;;4.57;;
2305;SDS011;1161;51.922;8.896;2024-02-15T15:16:39;5.20;;;4.80;;
2305;SDS011;1161;51.922;8.896;2024-02-15T15:19:07;26.20;;;11.40;;
2305;SDS011;1161;51.922;8.896;2024-02-15T15:21:36;8.97;;;5.20;;
2305;SDS011;1161;51.922;8.896;2024-02-15T15:24:03;12.23;;;5.53;;
2305;SDS011;1161;51.922;8.896;2024-02-15T15:26:30;8.77;;;4.97;;
2305;SDS011;1161;51.922;8.896;2024-02-15T15:28:57;6.87;;;4.80;;